createdAt,value
2018-06-07T00:00:42.241Z,0.00
2018-06-07T00:01:42.265Z,0.00
2018-06-07T00:02:42.287Z,0.00
2018-06-07T00:03:42.309Z,0.00
2018-06-07T00:04:42.334Z,0.00
2018-06-07T00:05:42.355Z,0.00
2018-06-07T00:06:42.379Z,0.00
2018-06-07T00:07:42.402Z,0.00
2018-06-07T00:08:42.424Z,0.00
2018-06-07T00:09:42.449Z,0.00
2018-06-07T00:10:42.469Z,0.00
2018-06-07T00:11:42.492Z,0.00
2018-06-07T00:12:42.514Z,0.00
2018-06-07T00:13:42.537Z,0.00
2018-06-07T00:14:42.560Z,0.00
2018-06-07T00:15:42.582Z,0.00
2018-06-07T00:16:42.605Z,0.00
2018-06-07T00:17:42.626Z,0.00
2018-06-07T00:18:42.653Z,0.00
2018-06-07T00:19:42.673Z,0.00
2018-06-07T00:20:42.694Z,0.00
2018-06-07T00:21:42.718Z,0.00
2018-06-07T00:22:42.742Z,0.00
2018-06-07T00:23:42.764Z,0.00
2018-06-07T00:24:42.785Z,0.00
2018-06-07T00:25:42.808Z,0.00
2018-06-07T00:26:42.831Z,0.00
2018-06-07T00:27:42.854Z,0.00
2018-06-07T00:28:42.875Z,0.00
2018-06-07T00:29:42.898Z,0.00
2018-06-07T00:30:42.922Z,0.00
2018-06-07T00:31:42.945Z,0.00
2018-06-07T00:32:42.967Z,0.00
2018-06-07T00:33:42.988Z,0.00
2018-06-07T00:34:43.012Z,0.00
2018-06-07T00:35:43.035Z,0.00
2018-06-07T00:36:43.060Z,0.00
2018-06-07T00:37:43.078Z,0.00
2018-06-07T00:38:43.105Z,0.00
2018-06-07T00:39:43.124Z,0.00
2018-06-07T00:40:43.146Z,0.00
2018-06-07T00:41:43.170Z,0.00
2018-06-07T00:42:43.193Z,0.00
2018-06-07T00:43:43.215Z,0.00
2018-06-07T00:44:43.237Z,0.00
2018-06-07T00:45:43.260Z,0.00
2018-06-07T00:46:43.285Z,0.00
2018-06-07T00:47:43.305Z,0.00
2018-06-07T00:48:43.326Z,0.00
2018-06-07T00:49:43.349Z,0.00
2018-06-07T00:50:43.373Z,0.00
2018-06-07T00:51:43.395Z,0.00
2018-06-07T00:52:43.416Z,0.00
2018-06-07T00:53:43.440Z,0.00
2018-06-07T00:54:43.463Z,0.00
2018-06-07T00:55:43.485Z,0.00
2018-06-07T00:56:43.507Z,0.00
2018-06-07T00:57:43.530Z,0.00
2018-06-07T00:58:43.556Z,0.00
2018-06-07T00:59:43.574Z,0.00
2018-06-07T01:00:43.597Z,0.00
2018-06-07T01:01:43.618Z,0.00
2018-06-07T01:02:43.641Z,0.00
2018-06-07T01:03:43.665Z,0.00
2018-06-07T01:04:43.686Z,0.00
2018-06-07T01:05:43.708Z,0.00
2018-06-07T01:06:43.736Z,0.00
2018-06-07T01:07:43.753Z,0.00
2018-06-07T01:08:43.776Z,0.00
2018-06-07T01:09:43.798Z,0.00
2018-06-07T01:10:43.820Z,0.00
2018-06-07T01:11:43.844Z,0.00
2018-06-07T01:12:43.864Z,0.00
2018-06-07T01:13:43.888Z,0.00
2018-06-07T01:14:43.912Z,0.00
2018-06-07T01:15:43.935Z,0.00
2018-06-07T01:16:43.956Z,0.00
2018-06-07T01:17:43.978Z,0.00
2018-06-07T01:18:44.001Z,0.00
2018-06-07T01:19:44.022Z,0.00
2018-06-07T01:20:44.043Z,0.00
2018-06-07T01:21:44.067Z,0.00
2018-06-07T01:22:44.089Z,0.00
2018-06-07T01:23:44.113Z,0.00
2018-06-07T01:24:44.133Z,0.00
2018-06-07T01:25:44.156Z,0.00
2018-06-07T01:26:44.181Z,0.00
2018-06-07T01:27:44.201Z,0.00
2018-06-07T01:28:44.224Z,0.00
2018-06-07T01:29:44.246Z,0.00
2018-06-07T01:30:44.267Z,0.00
2018-06-07T01:31:44.291Z,0.00
2018-06-07T01:32:44.315Z,0.00
2018-06-07T01:33:44.334Z,0.00
2018-06-07T01:34:44.358Z,0.00
2018-06-07T01:35:44.380Z,0.00
2018-06-07T01:36:44.401Z,0.00
2018-06-07T01:37:44.431Z,0.00
2018-06-07T01:38:44.445Z,0.00
2018-06-07T01:39:44.469Z,0.00
2018-06-07T01:40:44.490Z,0.00
2018-06-07T01:41:44.514Z,0.00
2018-06-07T01:42:44.535Z,0.00
2018-06-07T01:43:44.657Z,0.00
2018-06-07T01:44:44.583Z,0.00
2018-06-07T01:45:44.601Z,0.00
2018-06-07T01:46:44.625Z,0.00
2018-06-07T01:47:44.647Z,0.00
2018-06-07T01:48:44.668Z,0.00
2018-06-07T01:49:44.691Z,0.00
2018-06-07T01:50:44.714Z,0.00
2018-06-07T01:51:44.736Z,0.00
2018-06-07T01:52:44.762Z,0.00
2018-06-07T01:53:44.780Z,0.00
2018-06-07T01:54:44.802Z,0.00
2018-06-07T01:55:44.824Z,0.00
2018-06-07T01:56:44.846Z,0.00
2018-06-07T01:57:44.869Z,0.00
2018-06-07T01:58:44.892Z,0.00
2018-06-07T01:59:44.914Z,0.00
2018-06-07T02:00:44.935Z,0.00
2018-06-07T02:01:44.960Z,0.00
2018-06-07T02:02:44.981Z,0.00
2018-06-07T02:03:45.008Z,0.00
2018-06-07T02:04:45.026Z,0.00
2018-06-07T02:05:45.049Z,0.00
2018-06-07T02:06:45.071Z,0.00
2018-06-07T02:07:45.092Z,0.00
2018-06-07T02:08:45.114Z,0.00
2018-06-07T02:09:45.141Z,0.00
2018-06-07T02:10:45.161Z,0.00
2018-06-07T02:11:45.182Z,0.00
2018-06-07T02:12:45.207Z,0.00
2018-06-07T02:13:45.226Z,0.00
2018-06-07T02:14:45.248Z,0.00
2018-06-07T02:15:45.270Z,0.00
2018-06-07T02:16:45.293Z,0.00
2018-06-07T02:17:45.314Z,0.00
2018-06-07T02:18:45.337Z,0.00
2018-06-07T02:19:45.360Z,0.00
2018-06-07T02:20:45.380Z,0.00
2018-06-07T02:21:45.403Z,0.00
2018-06-07T02:22:45.427Z,0.00
2018-06-07T02:23:45.449Z,0.00
2018-06-07T02:24:45.471Z,0.00
2018-06-07T02:25:45.494Z,0.00
2018-06-07T02:26:45.515Z,0.00
2018-06-07T02:27:45.538Z,0.00
2018-06-07T02:28:45.560Z,0.00
2018-06-07T02:29:45.582Z,0.00
2018-06-07T02:30:45.604Z,0.00
2018-06-07T02:31:45.628Z,0.00
2018-06-07T02:32:45.649Z,0.00
2018-06-07T02:33:45.671Z,0.00
2018-06-07T02:34:45.694Z,0.00
2018-06-07T02:35:45.715Z,0.00
2018-06-07T02:36:45.743Z,0.00
2018-06-07T02:37:45.759Z,0.00
2018-06-07T02:38:45.784Z,0.00
2018-06-07T02:39:45.806Z,0.00
2018-06-07T02:40:45.828Z,0.00
2018-06-07T02:41:45.849Z,0.00
2018-06-07T02:42:45.872Z,0.00
2018-06-07T02:43:45.893Z,0.00
2018-06-07T02:44:45.914Z,0.00
2018-06-07T02:45:45.936Z,0.00
2018-06-07T02:46:45.960Z,0.00
2018-06-07T02:47:45.985Z,0.00
2018-06-07T02:48:46.004Z,0.00
2018-06-07T02:49:46.027Z,0.00
2018-06-07T02:50:46.048Z,0.00
2018-06-07T02:51:46.070Z,0.00
2018-06-07T02:52:46.093Z,0.00
2018-06-07T02:53:46.163Z,0.00
2018-06-07T02:54:46.139Z,0.00
2018-06-07T02:55:46.159Z,0.00
2018-06-07T02:56:46.180Z,0.00
2018-06-07T02:57:46.202Z,0.00
2018-06-07T02:58:46.225Z,0.00
2018-06-07T02:59:46.248Z,0.00
2018-06-07T03:00:46.268Z,0.00
2018-06-07T03:01:46.291Z,0.00
2018-06-07T03:02:46.313Z,0.00
2018-06-07T03:03:46.338Z,0.00
2018-06-07T03:04:46.358Z,0.00
2018-06-07T03:05:46.381Z,0.00
2018-06-07T03:06:46.402Z,0.00
2018-06-07T03:07:46.424Z,0.00
2018-06-07T03:08:46.446Z,0.00
2018-06-07T03:09:46.467Z,5.63
2018-06-07T03:10:46.490Z,5.63
2018-06-07T03:11:46.513Z,5.63
2018-06-07T03:12:46.536Z,5.63
2018-06-07T03:13:46.557Z,5.63
2018-06-07T03:14:46.579Z,5.63
2018-06-07T03:15:46.600Z,5.63
2018-06-07T03:16:46.623Z,5.63
2018-06-07T03:17:46.645Z,5.63
2018-06-07T03:18:46.670Z,5.63
2018-06-07T03:19:46.689Z,5.63
2018-06-07T03:20:46.710Z,5.63
2018-06-07T03:21:46.733Z,11.25
2018-06-07T03:22:46.755Z,11.25
2018-06-07T03:23:46.776Z,11.25
2018-06-07T03:24:46.798Z,11.25
2018-06-07T03:25:46.821Z,11.25
2018-06-07T03:26:46.844Z,11.25
2018-06-07T03:27:46.867Z,11.25
2018-06-07T03:28:46.887Z,11.25
2018-06-07T03:29:46.909Z,16.88
2018-06-07T03:30:46.931Z,16.88
2018-06-07T03:31:46.954Z,16.88
2018-06-07T03:32:46.976Z,16.88
2018-06-07T03:33:46.998Z,16.88
2018-06-07T03:34:47.020Z,16.88
2018-06-07T03:35:47.041Z,16.88
2018-06-07T03:36:47.063Z,16.88
2018-06-07T03:37:47.086Z,22.50
2018-06-07T03:38:47.108Z,22.50
2018-06-07T03:39:47.130Z,22.50
2018-06-07T03:40:47.152Z,22.50
2018-06-07T03:41:47.173Z,22.50
2018-06-07T03:42:47.200Z,22.50
2018-06-07T03:43:47.219Z,22.50
2018-06-07T03:44:47.240Z,28.13
2018-06-07T03:45:47.261Z,28.13
2018-06-07T03:46:47.285Z,28.13
2018-06-07T03:47:47.316Z,28.13
2018-06-07T03:48:47.328Z,28.13
2018-06-07T03:49:47.350Z,28.13
2018-06-07T03:50:47.372Z,33.75
2018-06-07T03:51:47.394Z,33.75
2018-06-07T03:52:47.472Z,33.75
2018-06-07T03:53:47.438Z,33.75
2018-06-07T03:54:47.460Z,33.75
2018-06-07T03:55:47.481Z,33.75
2018-06-07T03:56:47.504Z,39.38
2018-06-07T03:57:47.525Z,39.38
2018-06-07T03:58:47.548Z,39.38
2018-06-07T03:59:47.572Z,39.38
2018-06-07T04:00:47.602Z,39.38
2018-06-07T04:01:47.614Z,45.00
2018-06-07T04:02:47.635Z,45.00
2018-06-07T04:03:47.657Z,45.00
2018-06-07T04:04:47.679Z,45.00
2018-06-07T04:05:47.702Z,45.00
2018-06-07T04:06:47.724Z,50.63
2018-06-07T04:07:47.748Z,50.63
2018-06-07T04:08:47.768Z,50.63
2018-06-07T04:09:47.790Z,50.63
2018-06-07T04:10:47.812Z,50.63
2018-06-07T04:11:47.835Z,50.63
2018-06-07T04:12:47.855Z,56.25
2018-06-07T04:13:47.879Z,56.25
2018-06-07T04:14:47.900Z,56.25
2018-06-07T04:15:47.922Z,61.88
2018-06-07T04:16:47.943Z,61.88
2018-06-07T04:17:47.967Z,61.88
2018-06-07T04:18:47.986Z,61.88
2018-06-07T04:19:48.009Z,61.88
2018-06-07T04:20:48.032Z,61.88
2018-06-07T04:21:48.053Z,67.50
2018-06-07T04:22:48.076Z,67.50
2018-06-07T04:23:48.097Z,67.50
2018-06-07T04:24:48.119Z,67.50
2018-06-07T04:25:48.142Z,73.13
2018-06-07T04:26:48.163Z,73.13
2018-06-07T04:27:48.189Z,73.13
2018-06-07T04:28:48.208Z,73.13
2018-06-07T04:29:48.229Z,78.75
2018-06-07T04:30:48.252Z,78.75
2018-06-07T04:31:48.275Z,78.75
2018-06-07T04:32:48.295Z,78.75
2018-06-07T04:33:48.317Z,84.38
2018-06-07T04:34:48.341Z,84.38
2018-06-07T04:35:48.362Z,90.00
2018-06-07T04:36:48.390Z,90.00
2018-06-07T04:37:48.409Z,90.00
2018-06-07T04:38:48.429Z,90.00
2018-06-07T04:39:48.451Z,90.00
2018-06-07T04:40:48.472Z,90.00
2018-06-07T04:41:48.494Z,90.00
2018-06-07T04:42:48.517Z,95.63
2018-06-07T04:43:48.555Z,95.63
2018-06-07T04:44:48.560Z,101.25
2018-06-07T04:45:48.583Z,101.25
2018-06-07T04:46:48.605Z,112.50
2018-06-07T04:47:48.628Z,123.75
2018-06-07T04:48:48.649Z,123.75
2018-06-07T04:49:48.671Z,129.38
2018-06-07T04:50:48.695Z,129.38
2018-06-07T04:51:48.716Z,135.00
2018-06-07T04:52:48.737Z,129.38
2018-06-07T04:53:48.762Z,135.00
2018-06-07T04:54:48.783Z,140.63
2018-06-07T04:55:48.806Z,140.63
2018-06-07T04:56:48.827Z,146.25
2018-06-07T04:57:48.849Z,151.88
2018-06-07T04:58:48.871Z,157.50
2018-06-07T04:59:48.895Z,157.50
2018-06-07T05:00:48.916Z,157.50
2018-06-07T05:01:48.939Z,163.13
2018-06-07T05:02:48.961Z,163.13
2018-06-07T05:03:48.983Z,168.75
2018-06-07T05:04:49.006Z,174.38
2018-06-07T05:05:49.029Z,180.00
2018-06-07T05:06:49.102Z,180.00
2018-06-07T05:07:49.074Z,185.63
2018-06-07T05:08:49.095Z,191.25
2018-06-07T05:09:49.119Z,202.50
2018-06-07T05:10:49.144Z,208.13
2018-06-07T05:11:49.165Z,208.13
2018-06-07T05:12:49.188Z,208.13
2018-06-07T05:13:49.209Z,202.50
2018-06-07T05:14:49.233Z,196.88
2018-06-07T05:15:49.255Z,196.88
2018-06-07T05:16:49.278Z,185.63
2018-06-07T05:17:49.301Z,180.00
2018-06-07T05:18:49.325Z,174.38
2018-06-07T05:19:49.346Z,174.38
2018-06-07T05:20:49.371Z,168.75
2018-06-07T05:21:49.392Z,163.13
2018-06-07T05:22:49.416Z,146.25
2018-06-07T05:23:49.440Z,146.25
2018-06-07T05:24:49.530Z,146.25
2018-06-07T05:25:49.484Z,157.50
2018-06-07T05:26:49.508Z,163.13
2018-06-07T05:27:49.532Z,168.75
2018-06-07T05:28:49.556Z,168.75
2018-06-07T05:29:49.577Z,174.38
2018-06-07T05:30:49.609Z,213.75
2018-06-07T05:31:49.623Z,225.00
2018-06-07T05:32:49.646Z,230.63
2018-06-07T05:33:49.668Z,236.25
2018-06-07T05:34:49.693Z,236.25
2018-06-07T05:35:49.716Z,236.25
2018-06-07T05:36:49.739Z,241.88
2018-06-07T05:37:49.761Z,241.88
2018-06-07T05:38:49.829Z,247.50
2018-06-07T05:39:49.809Z,253.13
2018-06-07T05:40:49.830Z,264.38
2018-06-07T05:41:49.855Z,270.00
2018-06-07T05:42:49.881Z,275.63
2018-06-07T05:43:49.901Z,281.25
2018-06-07T05:44:49.927Z,281.25
2018-06-07T05:45:49.951Z,281.25
2018-06-07T05:46:49.974Z,275.63
2018-06-07T05:47:49.996Z,275.63
2018-06-07T05:48:50.018Z,275.63
2018-06-07T05:49:50.043Z,281.25
2018-06-07T05:50:50.067Z,281.25
2018-06-07T05:51:50.096Z,281.25
2018-06-07T05:52:50.113Z,286.88
2018-06-07T05:53:50.137Z,292.50
2018-06-07T05:54:50.161Z,292.50
2018-06-07T05:55:50.227Z,292.50
2018-06-07T05:56:50.207Z,292.50
2018-06-07T05:57:50.231Z,298.13
2018-06-07T05:58:50.256Z,309.38
2018-06-07T05:59:50.297Z,309.38
2018-06-07T06:00:50.304Z,315.00
2018-06-07T06:01:50.328Z,320.63
2018-06-07T06:02:50.360Z,320.63
2018-06-07T06:03:50.394Z,326.25
2018-06-07T06:04:50.402Z,326.25
2018-06-07T06:05:50.426Z,337.50
2018-06-07T06:06:50.451Z,348.75
2018-06-07T06:07:50.475Z,360.00
2018-06-07T06:08:50.502Z,371.25
2018-06-07T06:09:50.545Z,382.50
2018-06-07T06:10:50.549Z,388.13
2018-06-07T06:11:50.574Z,388.13
2018-06-07T06:12:50.597Z,405.00
2018-06-07T06:13:50.624Z,416.25
2018-06-07T06:14:50.649Z,416.25
2018-06-07T06:15:50.673Z,450.00
2018-06-07T06:16:50.698Z,466.88
2018-06-07T06:17:50.722Z,545.63
2018-06-07T06:18:50.745Z,618.75
2018-06-07T06:19:50.770Z,691.88
2018-06-07T06:20:50.796Z,360.00
2018-06-07T06:21:50.821Z,658.13
2018-06-07T06:22:50.846Z,720.00
2018-06-07T06:23:50.871Z,781.88
2018-06-07T06:24:50.895Z,810.00
2018-06-07T06:25:50.919Z,888.75
2018-06-07T06:26:50.945Z,933.75
2018-06-07T06:27:51.012Z,1040.63
2018-06-07T06:28:50.994Z,1153.13
2018-06-07T06:29:51.019Z,1203.75
2018-06-07T06:30:51.044Z,1192.50
2018-06-07T06:31:51.071Z,1260.00
2018-06-07T06:32:51.094Z,1372.50
2018-06-07T06:33:51.120Z,1355.63
2018-06-07T06:34:51.146Z,838.13
2018-06-07T06:35:51.172Z,1310.63
2018-06-07T06:36:51.197Z,1305.00
2018-06-07T06:37:51.221Z,1181.25
2018-06-07T06:38:51.247Z,1158.75
2018-06-07T06:39:51.273Z,1085.63
2018-06-07T06:40:51.300Z,1046.25
2018-06-07T06:41:51.326Z,1040.63
2018-06-07T06:42:51.350Z,1023.75
2018-06-07T06:43:51.376Z,978.75
2018-06-07T06:44:51.402Z,916.88
2018-06-07T06:45:51.427Z,939.38
2018-06-07T06:46:51.454Z,995.63
2018-06-07T06:47:51.482Z,978.75
2018-06-07T06:48:51.507Z,950.63
2018-06-07T06:49:51.534Z,922.50
2018-06-07T06:50:51.560Z,939.38
2018-06-07T06:51:51.586Z,911.25
2018-06-07T06:52:51.613Z,883.13
2018-06-07T06:53:51.642Z,860.63
2018-06-07T06:54:51.666Z,849.38
2018-06-07T06:55:51.694Z,821.25
2018-06-07T06:56:51.721Z,793.13
2018-06-07T06:57:51.747Z,793.13
2018-06-07T06:58:51.774Z,815.63
2018-06-07T06:59:51.801Z,826.88
2018-06-07T07:00:51.829Z,815.63
2018-06-07T07:01:51.857Z,781.88
2018-06-07T07:02:51.885Z,787.50
2018-06-07T07:03:51.913Z,810.00
2018-06-07T07:04:51.941Z,815.63
2018-06-07T07:05:51.968Z,815.63
2018-06-07T07:06:51.995Z,815.63
2018-06-07T07:07:52.023Z,826.88
2018-06-07T07:08:52.050Z,798.75
2018-06-07T07:12:09.720Z,759.38
2018-06-07T07:12:36.168Z,736.88
2018-06-07T07:13:36.197Z,686.25
2018-06-07T07:14:36.225Z,725.63
2018-06-07T07:15:36.253Z,759.38
2018-06-07T07:16:36.282Z,776.25
2018-06-07T07:17:36.311Z,798.75
2018-06-07T07:18:36.339Z,798.75
2018-06-07T07:19:36.368Z,703.13
2018-06-07T07:20:36.397Z,815.63
2018-06-07T07:21:36.426Z,877.50
2018-06-07T07:22:36.454Z,838.13
2018-06-07T07:23:36.485Z,810.00
2018-06-07T07:24:36.514Z,765.00
2018-06-07T07:25:36.545Z,798.75
2018-06-07T07:26:36.571Z,787.50
2018-06-07T07:27:36.602Z,770.63
2018-06-07T07:28:36.630Z,630.00
2018-06-07T07:29:36.660Z,506.25
2018-06-07T07:30:36.689Z,781.88
2018-06-07T07:31:36.718Z,646.88
2018-06-07T07:32:36.748Z,798.75
2018-06-07T07:33:36.777Z,798.75
2018-06-07T07:34:36.861Z,781.88
2018-06-07T07:35:36.835Z,821.25
2018-06-07T07:36:36.866Z,838.13
2018-06-07T07:37:36.894Z,832.50
2018-06-07T07:38:36.923Z,815.63
2018-06-07T07:39:36.952Z,770.63
2018-06-07T07:40:36.983Z,551.25
2018-06-07T07:41:37.013Z,534.38
2018-06-07T07:42:37.042Z,506.25
2018-06-07T07:43:37.071Z,703.13
2018-06-07T07:44:37.102Z,725.63
2018-06-07T07:45:37.132Z,720.00
2018-06-07T07:46:37.161Z,630.00
2018-06-07T07:47:37.193Z,579.38
2018-06-07T07:48:37.221Z,483.75
2018-06-07T07:49:37.255Z,545.63
2018-06-07T07:50:37.280Z,579.38
2018-06-07T07:51:37.310Z,568.13
2018-06-07T07:52:37.344Z,573.75
2018-06-07T07:53:37.371Z,568.13
2018-06-07T07:54:37.399Z,562.50
2018-06-07T07:55:37.429Z,663.75
2018-06-07T07:56:37.459Z,804.38
2018-06-07T07:57:37.491Z,1063.13
2018-06-07T07:58:37.518Z,1215.00
2018-06-07T07:59:37.548Z,1271.25
2018-06-07T08:00:37.578Z,1040.63
2018-06-07T08:01:37.609Z,900.00
2018-06-07T08:02:37.637Z,849.38
2018-06-07T08:03:37.668Z,967.50
2018-06-07T08:04:37.702Z,1091.25
2018-06-07T08:05:37.776Z,1248.75
2018-06-07T08:06:37.756Z,1310.63
2018-06-07T08:07:37.786Z,1321.88
2018-06-07T08:08:37.817Z,1406.25
2018-06-07T08:09:37.852Z,1445.63
2018-06-07T08:10:37.874Z,1507.50
2018-06-07T08:11:37.905Z,1316.25
2018-06-07T08:12:37.936Z,1451.25
2018-06-07T08:13:37.966Z,1451.25
2018-06-07T08:14:37.994Z,1501.88
2018-06-07T08:15:38.026Z,1659.38
2018-06-07T08:16:38.055Z,1653.75
2018-06-07T08:17:38.086Z,1636.88
2018-06-07T08:18:38.114Z,1648.13
2018-06-07T08:19:38.146Z,1665.00
2018-06-07T08:20:38.176Z,1715.63
2018-06-07T08:21:38.207Z,1715.63
2018-06-07T08:22:38.235Z,1755.00
2018-06-07T08:23:38.267Z,1721.25
2018-06-07T08:24:38.298Z,1642.50
2018-06-07T08:25:38.331Z,1698.75
2018-06-07T08:26:38.359Z,1749.38
2018-06-07T08:27:38.391Z,1732.50
2018-06-07T08:28:38.422Z,1755.00
2018-06-07T08:29:38.452Z,1755.00
2018-06-07T08:30:38.483Z,1749.38
2018-06-07T08:31:38.514Z,1749.38
2018-06-07T08:32:38.545Z,1783.13
2018-06-07T08:33:38.578Z,1839.38
2018-06-07T08:34:38.614Z,1918.13
2018-06-07T08:35:38.640Z,1867.50
2018-06-07T08:36:38.671Z,1822.50
2018-06-07T08:37:38.703Z,1850.63
2018-06-07T08:38:38.733Z,1867.50
2018-06-07T08:39:38.785Z,1884.38
2018-06-07T08:40:38.797Z,1890.00
2018-06-07T08:41:38.829Z,1946.25
2018-06-07T08:42:38.860Z,1951.88
2018-06-07T08:43:38.893Z,1951.88
2018-06-07T08:44:38.953Z,1878.75
2018-06-07T08:45:38.957Z,1912.50
2018-06-07T08:46:38.988Z,1946.25
2018-06-07T08:47:39.020Z,1957.50
2018-06-07T08:48:39.056Z,1963.13
2018-06-07T08:49:39.084Z,1935.00
2018-06-07T08:50:39.116Z,1940.63
2018-06-07T08:51:39.149Z,1935.00
2018-06-07T08:52:39.181Z,1895.63
2018-06-07T08:53:39.214Z,1861.88
2018-06-07T08:54:39.245Z,1878.75
2018-06-07T08:55:39.277Z,1884.38
2018-06-07T08:56:39.311Z,1890.00
2018-06-07T08:57:39.342Z,1867.50
2018-06-07T08:58:39.375Z,1912.50
2018-06-07T08:59:39.407Z,1912.50
2018-06-07T09:00:39.440Z,1873.13
2018-06-07T09:01:39.473Z,1873.13
2018-06-07T09:02:39.527Z,1895.63
2018-06-07T09:03:39.544Z,1895.63
2018-06-07T09:04:39.570Z,1912.50
2018-06-07T09:05:39.602Z,1923.75
2018-06-07T09:06:39.634Z,1906.88
2018-06-07T09:07:39.667Z,1906.88
2018-06-07T09:08:39.704Z,1873.13
2018-06-07T09:09:39.733Z,1822.50
2018-06-07T09:10:39.764Z,1839.38
2018-06-07T09:11:39.798Z,1845.00
2018-06-07T09:12:39.830Z,1895.63
2018-06-07T09:13:39.864Z,1884.38
2018-06-07T09:14:39.894Z,1923.75
2018-06-07T09:15:39.931Z,1940.63
2018-06-07T09:16:39.961Z,1906.88
2018-06-07T09:17:40.014Z,1935.00
2018-06-07T09:18:40.028Z,1935.00
2018-06-07T09:19:40.057Z,1935.00
2018-06-07T09:20:40.090Z,1912.50
2018-06-07T09:21:40.123Z,1884.38
2018-06-07T09:22:40.157Z,1912.50
2018-06-07T09:23:40.187Z,1918.13
2018-06-07T09:24:40.223Z,1906.88
2018-06-07T09:25:40.253Z,1884.38
2018-06-07T09:26:40.285Z,1906.88
2018-06-07T09:27:40.319Z,1946.25
2018-06-07T09:28:40.366Z,1929.38
2018-06-07T09:29:40.382Z,1940.63
2018-06-07T09:30:40.414Z,1968.75
2018-06-07T09:31:40.450Z,1963.13
2018-06-07T09:32:40.480Z,1980.00
2018-06-07T09:33:40.512Z,1957.50
2018-06-07T09:34:40.544Z,1923.75
2018-06-07T09:35:40.577Z,1884.38
2018-06-07T09:36:40.609Z,1878.75
2018-06-07T09:37:40.643Z,1878.75
2018-06-07T09:38:40.676Z,1845.00
2018-06-07T09:39:40.710Z,1805.63
2018-06-07T09:40:40.742Z,1822.50
2018-06-07T09:41:40.775Z,1822.50
2018-06-07T09:42:40.806Z,1805.63
2018-06-07T09:43:40.842Z,1833.75
2018-06-07T09:44:40.872Z,1828.13
2018-06-07T09:45:40.906Z,1816.88
2018-06-07T09:46:40.938Z,1839.38
2018-06-07T09:47:40.971Z,1833.75
2018-06-07T09:48:41.004Z,1861.88
2018-06-07T09:49:41.038Z,1800.00
2018-06-07T09:50:41.069Z,1805.63
2018-06-07T09:51:41.103Z,1788.75
2018-06-07T09:52:41.187Z,1755.00
2018-06-07T09:53:41.170Z,1788.75
2018-06-07T09:54:41.205Z,1760.63
2018-06-07T09:55:41.235Z,1732.50
2018-06-07T09:56:41.270Z,1760.63
2018-06-07T09:57:41.305Z,1766.25
2018-06-07T09:58:41.335Z,1749.38
2018-06-07T09:59:41.368Z,1681.88
2018-06-07T10:00:41.415Z,1665.00
2018-06-07T10:01:41.434Z,1715.63
2018-06-07T10:02:41.467Z,1738.13
2018-06-07T10:03:41.562Z,1749.38
2018-06-07T10:04:41.533Z,1738.13
2018-06-07T10:05:41.566Z,1732.50
2018-06-07T10:06:41.600Z,1783.13
2018-06-07T10:07:41.632Z,1766.25
2018-06-07T10:08:41.666Z,1721.25
2018-06-07T10:09:41.700Z,1704.38
2018-06-07T10:10:41.734Z,1749.38
2018-06-07T10:11:41.765Z,1743.75
2018-06-07T10:12:41.798Z,1636.88
2018-06-07T10:13:41.833Z,1552.50
2018-06-07T10:14:41.866Z,1552.50
2018-06-07T10:15:41.898Z,1451.25
2018-06-07T10:16:41.933Z,1288.13
2018-06-07T10:17:41.969Z,1119.38
2018-06-07T10:18:41.998Z,1023.75
2018-06-07T10:19:42.033Z,973.13
2018-06-07T10:20:42.066Z,939.38
2018-06-07T10:21:42.106Z,911.25
2018-06-07T10:22:42.131Z,888.75
2018-06-07T10:23:42.165Z,894.38
2018-06-07T10:24:42.199Z,888.75
2018-06-07T10:25:42.232Z,883.13
2018-06-07T10:26:42.264Z,871.88
2018-06-07T10:27:42.298Z,855.00
2018-06-07T10:28:42.332Z,849.38
2018-06-07T10:29:42.365Z,849.38
2018-06-07T10:30:42.398Z,843.75
2018-06-07T10:31:42.432Z,849.38
2018-06-07T10:32:42.467Z,849.38
2018-06-07T10:33:42.500Z,838.13
2018-06-07T10:34:42.532Z,838.13
2018-06-07T10:35:42.565Z,849.38
2018-06-07T10:36:42.601Z,855.00
2018-06-07T10:37:42.634Z,849.38
2018-06-07T10:38:42.666Z,860.63
2018-06-07T10:39:42.747Z,849.38
2018-06-07T10:40:42.764Z,855.00
2018-06-07T10:41:42.766Z,849.38
2018-06-07T10:42:42.800Z,860.63
2018-06-07T10:43:42.834Z,860.63
2018-06-07T10:44:42.868Z,838.13
2018-06-07T10:45:42.901Z,843.75
2018-06-07T10:46:42.934Z,843.75
2018-06-07T10:47:42.968Z,871.88
2018-06-07T10:48:43.001Z,877.50
2018-06-07T10:49:43.034Z,888.75
2018-06-07T10:50:43.067Z,894.38
2018-06-07T10:51:43.105Z,911.25
2018-06-07T10:52:43.133Z,928.13
2018-06-07T10:53:43.167Z,900.00
2018-06-07T10:54:43.200Z,939.38
2018-06-07T10:55:43.234Z,961.88
2018-06-07T10:56:43.269Z,1023.75
2018-06-07T10:57:43.300Z,1080.00
2018-06-07T10:58:43.333Z,1141.88
2018-06-07T10:59:43.366Z,1215.00
2018-06-07T11:00:43.402Z,1327.50
2018-06-07T11:01:43.434Z,1406.25
2018-06-07T11:02:43.466Z,1428.75
2018-06-07T11:03:43.502Z,1468.13
2018-06-07T11:04:43.534Z,1445.63
2018-06-07T11:05:43.569Z,1383.75
2018-06-07T11:06:43.601Z,1310.63
2018-06-07T11:07:43.635Z,1265.63
2018-06-07T11:08:43.670Z,1248.75
2018-06-07T11:09:43.705Z,1226.25
2018-06-07T11:10:43.735Z,1198.13
2018-06-07T11:11:43.768Z,1164.38
2018-06-07T11:12:43.803Z,1158.75
2018-06-07T11:13:43.837Z,1130.63
2018-06-07T11:14:43.870Z,1080.00
2018-06-07T11:15:43.903Z,1040.63
2018-06-07T11:16:43.939Z,1018.13
2018-06-07T11:17:43.970Z,1012.50
2018-06-07T11:18:44.002Z,1001.25
2018-06-07T11:19:44.037Z,995.63
2018-06-07T11:20:44.072Z,1023.75
2018-06-07T11:21:44.104Z,1023.75
2018-06-07T11:22:44.136Z,1006.88
2018-06-07T11:23:45.961Z,1006.88
2018-06-07T11:24:44.206Z,973.13
2018-06-07T11:25:44.237Z,945.00
2018-06-07T11:26:44.271Z,928.13
2018-06-07T11:30:27.559Z,883.13
2018-06-07T11:30:28.406Z,866.25
2018-06-07T11:31:28.485Z,883.13
2018-06-07T11:32:28.471Z,883.13
2018-06-07T11:33:28.505Z,916.88
2018-06-07T11:34:28.540Z,900.00
2018-06-07T11:35:28.572Z,900.00
2018-06-07T11:36:28.606Z,843.75
2018-06-07T11:37:28.639Z,843.75
2018-06-07T11:38:28.674Z,826.88
2018-06-07T11:39:28.708Z,821.25
2018-06-07T11:40:28.740Z,821.25
2018-06-07T11:41:28.773Z,821.25
2018-06-07T11:42:28.807Z,798.75
2018-06-07T11:43:28.844Z,798.75
2018-06-07T11:44:28.875Z,793.13
2018-06-07T11:45:28.913Z,798.75
2018-06-07T11:46:28.942Z,832.50
2018-06-07T11:47:28.974Z,855.00
2018-06-07T11:48:29.007Z,866.25
2018-06-07T11:49:29.049Z,860.63
2018-06-07T11:50:29.074Z,860.63
2018-06-07T11:51:29.110Z,849.38
2018-06-07T11:52:29.195Z,826.88
2018-06-07T11:53:29.175Z,826.88
2018-06-07T11:54:29.209Z,826.88
2018-06-07T11:55:29.242Z,815.63
2018-06-07T11:56:29.297Z,804.38
2018-06-07T11:57:29.309Z,821.25
2018-06-07T11:58:29.345Z,810.00
2018-06-07T11:59:29.377Z,815.63
2018-06-07T12:00:29.408Z,748.13
2018-06-07T12:01:29.441Z,787.50
2018-06-07T12:02:29.476Z,720.00
2018-06-07T12:03:29.508Z,759.38
2018-06-07T12:04:29.541Z,770.63
2018-06-07T12:05:29.574Z,776.25
2018-06-07T12:06:29.609Z,759.38
2018-06-07T12:07:29.641Z,590.63
2018-06-07T12:08:29.674Z,500.63
2018-06-07T12:09:29.708Z,691.88
2018-06-07T12:10:29.744Z,466.88
2018-06-07T12:11:29.774Z,444.38
2018-06-07T12:12:29.858Z,483.75
2018-06-07T12:13:29.846Z,416.25
2018-06-07T12:14:29.873Z,416.25
2018-06-07T12:15:29.905Z,421.88
2018-06-07T12:16:29.941Z,421.88
2018-06-07T12:17:29.970Z,714.38
2018-06-07T12:18:30.006Z,731.25
2018-06-07T12:19:30.036Z,708.75
2018-06-07T12:20:30.068Z,708.75
2018-06-07T12:21:30.100Z,686.25
2018-06-07T12:22:30.132Z,680.63
2018-06-07T12:23:30.168Z,675.00
2018-06-07T12:24:30.197Z,646.88
2018-06-07T12:25:30.231Z,607.50
2018-06-07T12:26:30.264Z,393.75
2018-06-07T12:27:30.294Z,388.13
2018-06-07T12:28:30.326Z,416.25
2018-06-07T12:29:30.359Z,393.75
2018-06-07T12:30:30.391Z,399.38
2018-06-07T12:31:30.421Z,427.50
2018-06-07T12:32:30.455Z,433.13
2018-06-07T12:33:30.484Z,472.50
2018-06-07T12:34:30.520Z,438.75
2018-06-07T12:35:30.549Z,416.25
2018-06-07T12:36:30.583Z,393.75
2018-06-07T12:37:30.618Z,382.50
2018-06-07T12:38:30.643Z,371.25
2018-06-07T12:39:30.678Z,371.25
2018-06-07T12:40:30.828Z,376.88
2018-06-07T12:41:30.739Z,382.50
2018-06-07T12:42:30.770Z,399.38